Time;durP1;ratioP1;P1;durP2;ratioP2;P2;SDS_P1;SDS_P2;PMS_P1;PMS_P2;Temp;Humidity;BMP_temperature;BMP_pressure;BME280_temperature;BME280_humidity;BME280_pressure;Samples;Min_cycle;Max_cycle;Signal;HPM_P1;HPM_P2
2022/09/01 00:01:50;;;;;;;0.10;0.10;;;13.00;99.90;;;;;;4885489;29;20457;-84
2022/09/01 00:04:20;;;;;;;0.10;0.10;;;13.00;99.90;;;;;;4896481;29;21292;-85
2022/09/01 00:06:47;;;;;;;0.10;0.10;;;12.90;99.90;;;;;;4886871;29;20459;-84
2022/09/01 00:09:16;;;;;;;0.10;0.10;;;13.00;99.90;;;;;;4882808;29;20453;-84
2022/09/01 00:11:44;;;;;;;0.10;0.10;;;12.90;99.90;;;;;;4883543;29;20497;-84
2022/09/01 00:14:10;;;;;;;0.20;0.20;;;12.80;99.90;;;;;;4893027;29;20536;-85
2022/09/01 00:16:36;;;;;;;0.10;0.10;;;12.80;99.90;;;;;;4891063;29;20489;-85
2022/09/01 00:19:02;;;;;;;0.10;0.10;;;12.90;99.90;;;;;;4887854;29;20489;-84
2022/09/01 00:21:32;;;;;;;0.10;0.10;;;12.80;99.90;;;;;;4891259;29;20461;-85
2022/09/01 00:23:59;;;;;;;0.10;0.10;;;12.80;99.90;;;;;;4885747;29;20492;-84
2022/09/01 00:26:25;;;;;;;0.10;0.10;;;12.80;99.90;;;;;;4891053;29;20491;-85
2022/09/01 00:28:50;;;;;;;0.10;0.10;;;12.80;99.90;;;;;;4889071;29;20954;-84
2022/09/01 00:31:18;;;;;;;0.10;0.10;;;12.70;99.90;;;;;;4889101;29;20216;-84
2022/09/01 00:33:45;;;;;;;0.10;0.10;;;12.70;99.90;;;;;;4892189;29;20280;-85
2022/09/01 00:36:11;;;;;;;0.10;0.10;;;12.70;99.90;;;;;;4890153;29;20489;-84
2022/09/01 00:38:37;;;;;;;0.10;0.10;;;12.60;99.90;;;;;;4888301;29;20452;-85
2022/09/01 00:41:02;;;;;;;0.10;0.10;;;12.60;99.90;;;;;;4890651;29;20461;-84
2022/09/01 00:43:54;;;;;;;0.10;0.10;;;12.50;99.90;;;;;;4891044;29;20200;-85
2022/09/01 00:46:24;;;;;;;0.10;0.10;;;12.50;99.90;;;;;;4889668;29;20228;-84
2022/09/01 00:48:57;;;;;;;0.10;0.10;;;12.50;99.90;;;;;;4891156;29;20569;-84
2022/09/01 00:51:23;;;;;;;0.10;0.10;;;12.60;99.90;;;;;;4891316;29;20472;-84
2022/09/01 00:53:48;;;;;;;0.20;0.20;;;12.50;99.90;;;;;;4888467;29;20589;-84
2022/09/01 00:56:15;;;;;;;0.20;0.20;;;12.50;99.90;;;;;;4885281;29;21004;-85
2022/09/01 00:58:41;;;;;;;0.10;0.10;;;12.50;99.90;;;;;;4890153;29;20449;-84
2022/09/01 01:01:08;;;;;;;0.10;0.10;;;12.50;99.90;;;;;;4893323;29;20454;-84
2022/09/01 01:03:35;;;;;;;0.20;0.20;;;12.40;99.90;;;;;;4894685;29;20449;-84
2022/09/01 01:06:03;;;;;;;0.20;0.20;;;12.40;99.90;;;;;;4893638;29;20524;-84
2022/09/01 01:08:34;;;;;;;0.10;0.10;;;12.40;99.90;;;;;;4895407;29;20527;-83
2022/09/01 01:11:20;;;;;;;0.20;0.20;;;12.40;99.90;;;;;;4894021;29;20449;-85
2022/09/01 01:14:08;;;;;;;0.10;0.10;;;12.30;99.90;;;;;;4895472;29;20457;-85
2022/09/01 01:16:33;;;;;;;0.10;0.10;;;12.30;99.90;;;;;;4893509;29;20574;-85
2022/09/01 01:18:59;;;;;;;0.10;0.10;;;12.30;99.90;;;;;;4892619;29;20485;-86
2022/09/01 01:24:20;;;;;;;0.20;0.20;;;12.20;99.90;;;;;;4890136;29;20283;-84
2022/09/01 01:26:46;;;;;;;0.20;0.20;;;12.30;99.90;;;;;;4890203;29;20488;-84
2022/09/01 01:29:12;;;;;;;0.10;0.10;;;12.50;99.90;;;;;;4892547;29;20531;-85
2022/09/01 01:31:37;;;;;;;0.17;0.17;;;12.50;99.90;;;;;;4903262;29;20205;-85
2022/09/01 01:34:06;;;;;;;0.10;0.10;;;12.40;99.90;;;;;;4892267;29;20437;-85
2022/09/01 01:36:35;;;;;;;0.20;0.20;;;12.40;99.90;;;;;;4897353;29;20229;-84
2022/09/01 01:39:17;;;;;;;0.10;0.10;;;12.40;99.90;;;;;;4899070;29;20451;-84
2022/09/01 01:41:47;;;;;;;0.10;0.10;;;12.30;99.90;;;;;;4908055;29;20457;-84
2022/09/01 01:44:14;;;;;;;0.10;0.10;;;12.30;99.90;;;;;;4898672;29;20561;-84
2022/09/01 01:46:42;;;;;;;0.10;0.10;;;12.40;99.90;;;;;;4889201;29;20461;-84
2022/09/01 01:49:12;;;;;;;0.20;0.20;;;12.30;99.90;;;;;;4893050;29;20499;-84
2022/09/01 01:51:38;;;;;;;0.10;0.10;;;12.20;99.90;;;;;;4898350;29;20881;-85
2022/09/01 01:54:04;;;;;;;0.20;0.20;;;12.10;99.90;;;;;;4895487;29;20463;-85
2022/09/01 01:56:31;;;;;;;0.20;0.20;;;12.10;99.90;;;;;;4896066;29;20610;-85
2022/09/01 01:58:57;;;;;;;0.20;0.20;;;12.00;99.90;;;;;;4896516;29;20969;-85
2022/09/01 02:01:27;;;;;;;0.10;0.10;;;12.10;99.90;;;;;;4894608;29;20464;-84
2022/09/01 02:03:54;;;;;;;0.20;0.20;;;12.00;99.90;;;;;;4893162;29;20225;-84
2022/09/01 02:06:23;;;;;;;0.20;0.20;;;12.10;99.90;;;;;;4894635;29;20468;-84
2022/09/01 02:08:51;;;;;;;0.20;0.20;;;11.90;99.90;;;;;;4892793;29;20453;-85
2022/09/01 02:11:17;;;;;;;0.20;0.20;;;11.90;99.90;;;;;;4893361;29;20468;-85
2022/09/01 02:13:44;;;;;;;0.20;0.20;;;11.90;99.90;;;;;;4898603;29;20445;-84
2022/09/01 02:16:13;;;;;;;0.20;0.20;;;11.90;99.90;;;;;;4902963;29;20543;-84
2022/09/01 02:18:47;;;;;;;0.20;0.20;;;11.90;99.90;;;;;;4893621;29;21415;-85
2022/09/01 02:21:18;;;;;;;0.20;0.20;;;11.80;99.90;;;;;;4895571;29;20964;-85
2022/09/01 02:23:46;;;;;;;0.20;0.20;;;11.80;99.90;;;;;;4894845;29;20500;-84
2022/09/01 02:26:12;;;;;;;0.13;0.13;;;11.70;99.90;;;;;;4895905;29;20487;-85
2022/09/01 02:28:41;;;;;;;0.20;0.20;;;11.70;99.90;;;;;;4893913;29;20453;-85
2022/09/01 02:31:08;;;;;;;0.20;0.20;;;11.80;99.90;;;;;;4893227;29;20965;-84
2022/09/01 02:33:35;;;;;;;0.20;0.20;;;11.80;99.90;;;;;;4896766;29;20925;-85
2022/09/01 02:36:07;;;;;;;0.10;0.10;;;11.70;99.90;;;;;;4903168;29;20569;-84
2022/09/01 02:38:32;;;;;;;0.20;0.20;;;11.70;99.90;;;;;;4894258;29;20459;-85
2022/09/01 02:41:01;;;;;;;0.20;0.20;;;11.90;99.90;;;;;;4888523;29;20461;-85
2022/09/01 02:43:28;;;;;;;0.20;0.20;;;12.00;99.90;;;;;;4896594;29;20189;-85
2022/09/01 02:45:58;;;;;;;0.20;0.20;;;12.10;99.90;;;;;;4899738;29;20481;-85
2022/09/01 02:48:31;;;;;;;0.20;0.20;;;12.00;99.90;;;;;;4893022;29;20448;-85
2022/09/01 02:51:00;;;;;;;0.10;0.10;;;12.00;99.90;;;;;;4903821;29;20467;-84
2022/09/01 02:53:26;;;;;;;0.20;0.20;;;11.90;99.90;;;;;;4894162;29;20460;-84
2022/09/01 02:55:52;;;;;;;0.20;0.20;;;11.90;99.90;;;;;;4893824;29;20489;-84
2022/09/01 02:58:18;;;;;;;0.20;0.20;;;11.90;99.90;;;;;;4895431;29;20945;-84
2022/09/01 03:00:45;;;;;;;0.10;0.10;;;11.80;99.90;;;;;;4892011;29;20216;-84
2022/09/01 03:03:18;;;;;;;0.20;0.20;;;11.80;99.90;;;;;;4895647;29;20465;-85
2022/09/01 03:05:43;;;;;;;0.20;0.20;;;11.70;99.90;;;;;;4897607;29;20533;-85
2022/09/01 03:08:11;;;;;;;0.20;0.20;;;11.80;99.90;;;;;;4892349;29;20905;-85
2022/09/01 03:10:40;;;;;;;0.20;0.20;;;11.90;99.90;;;;;;4892700;29;20241;-85
2022/09/01 03:13:11;;;;;;;0.20;0.20;;;11.90;99.90;;;;;;4893789;29;20532;-85
2022/09/01 03:15:37;;;;;;;0.20;0.20;;;11.90;99.90;;;;;;4884295;29;20488;-85
2022/09/01 03:18:04;;;;;;;0.20;0.20;;;11.90;99.90;;;;;;4892866;29;20881;-85
2022/09/01 03:20:34;;;;;;;0.20;0.20;;;11.80;99.90;;;;;;4893105;29;20265;-84
2022/09/01 03:23:02;;;;;;;0.20;0.20;;;11.70;99.90;;;;;;4892550;29;20453;-85
2022/09/01 03:25:28;;;;;;;0.10;0.10;;;11.80;99.90;;;;;;4894201;29;20816;-85
2022/09/01 03:28:00;;;;;;;0.10;0.10;;;11.70;99.90;;;;;;4895312;29;20451;-85
2022/09/01 03:30:28;;;;;;;0.20;0.20;;;11.70;99.90;;;;;;4893469;29;20851;-85
2022/09/01 03:32:57;;;;;;;0.10;0.10;;;11.70;99.90;;;;;;4892868;29;20950;-84
2022/09/01 03:35:24;;;;;;;0.20;0.20;;;11.70;99.90;;;;;;4894694;29;20564;-86
2022/09/01 03:37:51;;;;;;;0.17;0.17;;;11.70;99.90;;;;;;4899521;29;21048;-84
2022/09/01 03:40:17;;;;;;;0.20;0.20;;;11.70;99.90;;;;;;4897188;29;20459;-85
2022/09/01 03:42:44;;;;;;;0.20;0.20;;;11.70;99.90;;;;;;4900751;29;20481;-84
2022/09/01 03:45:11;;;;;;;0.17;0.17;;;11.60;99.90;;;;;;4893803;29;20973;-84
2022/09/01 03:47:39;;;;;;;0.20;0.20;;;11.50;99.90;;;;;;4893312;29;21064;-84
2022/09/01 03:50:21;;;;;;;0.20;0.20;;;11.50;99.90;;;;;;4899330;29;20448;-85
2022/09/01 03:52:48;;;;;;;0.20;0.20;;;11.60;99.90;;;;;;4897565;29;20969;-85
2022/09/01 03:55:22;;;;;;;0.20;0.20;;;11.60;99.90;;;;;;4889536;29;20472;-84
2022/09/01 03:57:50;;;;;;;0.20;0.20;;;11.50;99.90;;;;;;4893610;29;20464;-85
2022/09/01 04:00:22;;;;;;;0.20;0.20;;;11.50;99.90;;;;;;4892968;29;20461;-85
2022/09/01 04:02:50;;;;;;;0.20;0.20;;;11.50;99.90;;;;;;4892411;29;20513;-85
2022/09/01 04:05:21;;;;;;;0.10;0.10;;;11.40;99.90;;;;;;4890220;29;20548;-85
2022/09/01 04:07:48;;;;;;;0.10;0.10;;;11.40;99.90;;;;;;4901139;29;20500;-85
2022/09/01 04:10:16;;;;;;;0.20;0.20;;;11.40;99.90;;;;;;4892884;29;20464;-84
2022/09/01 04:12:42;;;;;;;0.20;0.20;;;11.40;99.90;;;;;;4892536;29;20477;-84
2022/09/01 04:15:08;;;;;;;0.20;0.20;;;11.40;99.90;;;;;;4904407;29;20469;-84
2022/09/01 04:20:19;;;;;;;0.20;0.20;;;11.30;99.90;;;;;;4894107;29;20533;-85
2022/09/01 04:22:51;;;;;;;0.20;0.20;;;11.30;99.90;;;;;;4891954;29;20462;-83
2022/09/01 04:25:24;;;;;;;0.20;0.20;;;11.20;99.90;;;;;;4891799;29;20832;-84
2022/09/01 04:27:52;;;;;;;0.20;0.20;;;11.20;99.90;;;;;;4892496;29;20457;-85
2022/09/01 04:30:18;;;;;;;0.20;0.20;;;11.20;99.90;;;;;;4890567;29;20461;-84
2022/09/01 04:32:45;;;;;;;0.20;0.20;;;11.30;99.90;;;;;;4890351;29;20468;-86
2022/09/01 04:35:15;;;;;;;0.20;0.20;;;11.30;99.90;;;;;;4895890;29;20356;-85
2022/09/01 04:37:42;;;;;;;0.20;0.20;;;11.40;99.90;;;;;;4888063;29;20457;-85
2022/09/01 04:40:08;;;;;;;0.20;0.20;;;11.30;99.90;;;;;;4889844;29;20464;-85
2022/09/01 04:42:34;;;;;;;0.20;0.20;;;11.40;99.90;;;;;;4885428;29;20481;-84
2022/09/01 04:45:00;;;;;;;0.20;0.20;;;11.30;99.90;;;;;;4877396;29;20463;-85
2022/09/01 04:47:28;;;;;;;0.20;0.20;;;11.20;99.90;;;;;;4889756;29;20260;-85
2022/09/01 04:49:57;;;;;;;0.20;0.20;;;11.20;99.90;;;;;;4895036;29;20484;-84
2022/09/01 04:52:24;;;;;;;0.20;0.20;;;11.20;99.90;;;;;;4892938;29;20593;-85
2022/09/01 04:54:49;;;;;;;0.20;0.20;;;11.10;99.90;;;;;;4891924;29;20556;-85
2022/09/01 04:57:15;;;;;;;0.20;0.20;;;11.20;99.90;;;;;;4890695;29;20893;-84
2022/09/01 04:59:42;;;;;;;0.20;0.20;;;11.10;99.90;;;;;;4893305;29;20189;-85
2022/09/01 05:02:08;;;;;;;0.20;0.20;;;11.20;99.90;;;;;;4886949;29;20816;-85
2022/09/01 05:04:35;;;;;;;0.20;0.20;;;11.30;99.90;;;;;;4889417;29;20540;-85
2022/09/01 05:07:03;;;;;;;0.20;0.20;;;11.30;99.90;;;;;;4888537;29;20479;-84
2022/09/01 05:09:34;;;;;;;0.10;0.10;;;11.40;99.90;;;;;;4888660;29;20453;-84
2022/09/01 05:12:09;;;;;;;0.20;0.20;;;11.40;99.90;;;;;;4890710;29;20449;-84
2022/09/01 05:14:37;;;;;;;0.20;0.20;;;11.50;99.90;;;;;;4891636;29;20440;-84
2022/09/01 05:17:03;;;;;;;0.20;0.20;;;11.40;99.90;;;;;;4889934;29;20982;-84
2022/09/01 05:19:28;;;;;;;0.20;0.20;;;11.40;99.90;;;;;;4891486;29;20576;-85
2022/09/01 05:21:57;;;;;;;0.10;0.10;;;11.40;99.90;;;;;;4894887;29;20468;-84
2022/09/01 05:24:28;;;;;;;0.10;0.10;;;11.30;99.90;;;;;;4889020;29;20212;-85
2022/09/01 05:26:59;;;;;;;0.20;0.20;;;11.50;99.90;;;;;;4890596;29;20460;-84
2022/09/01 05:29:28;;;;;;;0.20;0.20;;;11.70;99.90;;;;;;4891521;29;20512;-85
2022/09/01 05:31:54;;;;;;;0.20;0.20;;;11.70;99.90;;;;;;4897757;29;20455;-85
2022/09/01 05:34:28;;;;;;;0.10;0.10;;;11.80;99.90;;;;;;4884256;29;20877;-84
2022/09/01 05:36:58;;;;;;;0.10;0.10;;;11.90;99.90;;;;;;4887545;29;20613;-86
2022/09/01 05:39:24;;;;;;;0.13;0.13;;;12.00;99.90;;;;;;4888278;29;20441;-84
2022/09/01 05:41:51;;;;;;;0.10;0.10;;;12.10;99.90;;;;;;4889266;29;20464;-84
2022/09/01 05:44:17;;;;;;;0.13;0.13;;;12.20;99.90;;;;;;4891882;29;20445;-87
2022/09/01 05:46:43;;;;;;;0.20;0.20;;;12.30;99.90;;;;;;4893722;29;20456;-85
2022/09/01 05:49:14;;;;;;;0.20;0.20;;;12.40;99.90;;;;;;4893442;29;20468;-84
2022/09/01 05:51:42;;;;;;;0.20;0.20;;;12.50;99.90;;;;;;4896541;29;20441;-85
2022/09/01 05:54:09;;;;;;;0.13;0.13;;;12.60;99.90;;;;;;4895549;29;20477;-86
2022/09/01 05:56:39;;;;;;;0.10;0.10;;;12.70;99.90;;;;;;4891677;29;20484;-84
2022/09/01 05:59:04;;;;;;;0.10;0.10;;;12.80;99.90;;;;;;4893035;29;20993;-84
2022/09/01 06:01:32;;;;;;;0.10;0.10;;;12.90;99.90;;;;;;4894126;29;20543;-85
2022/09/01 06:04:02;;;;;;;0.10;0.10;;;13.00;99.90;;;;;;4907767;29;20192;-85
2022/09/01 06:06:35;;;;;;;0.10;0.10;;;13.10;99.90;;;;;;4895913;29;20489;-85
2022/09/01 06:09:01;;;;;;;0.10;0.10;;;13.10;99.90;;;;;;4893787;29;20450;-84
2022/09/01 06:11:31;;;;;;;0.10;0.10;;;13.20;99.90;;;;;;4895035;29;20457;-87
2022/09/01 06:14:00;;;;;;;0.10;0.10;;;13.30;99.90;;;;;;4908643;29;20837;-87
2022/09/01 06:16:27;;;;;;;0.10;0.10;;;13.50;99.90;;;;;;4892477;29;21076;-87
2022/09/01 06:18:57;;;;;;;0.10;0.10;;;13.60;99.90;;;;;;4904052;29;20492;-87
2022/09/01 06:21:23;;;;;;;0.10;0.10;;;13.80;99.90;;;;;;4893558;29;20453;-88
2022/09/01 06:23:50;;;;;;;0.10;0.10;;;13.90;99.90;;;;;;4894337;29;20460;-85
2022/09/01 06:26:27;;;;;;;0.10;0.10;;;14.00;99.90;;;;;;4895728;29;20456;-87
2022/09/01 06:29:09;;;;;;;0.10;0.10;;;14.20;99.90;;;;;;4895996;29;20441;-87
2022/09/01 06:31:38;;;;;;;0.10;0.10;;;14.40;99.90;;;;;;4891455;29;20496;-88
2022/09/01 06:34:05;;;;;;;0.10;0.10;;;14.70;99.90;;;;;;4893363;29;20440;-89
2022/09/01 06:36:35;;;;;;;0.10;0.10;;;14.90;99.90;;;;;;4893831;29;20830;-88
2022/09/01 06:39:01;;;;;;;0.10;0.10;;;15.20;99.90;;;;;;4896049;29;20533;-88
2022/09/01 06:41:27;;;;;;;0.10;0.10;;;15.30;99.90;;;;;;4891579;29;20977;-88
2022/09/01 06:43:54;;;;;;;0.10;0.10;;;15.30;99.90;;;;;;4894087;29;20453;-88
2022/09/01 06:46:22;;;;;;;0.10;0.10;;;15.40;99.90;;;;;;4893018;29;20453;-92
2022/09/01 06:48:48;;;;;;;0.10;0.10;;;15.50;99.90;;;;;;4894978;29;20978;-90
2022/09/01 06:51:19;;;;;;;0.10;0.10;;;15.70;99.90;;;;;;4900171;29;20548;-90
2022/09/01 06:53:49;;;;;;;0.10;0.10;;;15.80;99.90;;;;;;4893065;29;20185;-90
2022/09/01 06:56:17;;;;;;;0.10;0.10;;;15.90;99.90;;;;;;4888337;29;20501;-91
2022/09/01 06:58:47;;;;;;;0.10;0.10;;;16.00;99.90;;;;;;4901410;29;20529;-91
2022/09/01 07:01:18;;;;;;;0.10;0.10;;;16.20;99.90;;;;;;4892286;29;20540;-89
2022/09/01 07:03:46;;;;;;;0.10;0.10;;;16.30;99.90;;;;;;4896254;29;20438;-91
2022/09/01 07:06:14;;;;;;;0.10;0.10;;;16.40;99.90;;;;;;4897125;29;20516;-91
2022/09/01 07:08:40;;;;;;;0.10;0.10;;;16.50;99.90;;;;;;4895982;29;20999;-91
2022/09/01 07:11:15;;;;;;;0.10;0.10;;;16.70;99.90;;;;;;4894062;29;20520;-93
2022/09/01 07:13:44;;;;;;;0.10;0.10;;;16.80;99.90;;;;;;4896951;29;20825;-92
2022/09/01 07:16:20;;;;;;;0.10;0.10;;;16.90;99.90;;;;;;4895545;29;20565;-89
2022/09/01 07:18:45;;;;;;;0.10;0.10;;;17.10;99.90;;;;;;4893494;29;20483;-93
2022/09/01 07:21:11;;;;;;;0.10;0.10;;;17.30;99.90;;;;;;4894811;29;20544;-95
2022/09/01 07:23:38;;;;;;;0.10;0.10;;;17.40;99.90;;;;;;4893550;29;20608;-93
2022/09/01 07:26:05;;;;;;;0.10;0.10;;;17.40;99.90;;;;;;4912284;29;20233;-90
2022/09/01 07:28:32;;;;;;;0.10;0.10;;;17.70;99.90;;;;;;4896697;29;20459;-96
2022/09/01 07:30:59;;;;;;;0.10;0.10;;;17.80;99.90;;;;;;4895956;29;20452;-91
2022/09/01 07:33:26;;;;;;;0.10;0.10;;;17.90;99.90;;;;;;4894405;29;20504;-92
2022/09/01 07:35:54;;;;;;;0.10;0.10;;;18.00;99.90;;;;;;4907264;29;20544;-92
2022/09/01 07:38:23;;;;;;;0.10;0.10;;;18.20;99.90;;;;;;4894644;29;20449;-89
2022/09/01 07:40:52;;;;;;;0.10;0.00;;;18.30;99.90;;;;;;4895848;29;20460;-96
2022/09/01 07:43:24;;;;;;;0.10;0.10;;;18.40;99.90;;;;;;4900599;29;20938;-93
2022/09/01 07:45:54;;;;;;;0.10;0.10;;;18.40;99.90;;;;;;4897163;29;21001;-93
2022/09/01 07:48:22;;;;;;;0.10;0.10;;;18.60;99.90;;;;;;4900335;29;20550;-96
2022/09/01 07:50:51;;;;;;;0.10;0.10;;;18.80;99.90;;;;;;4897423;29;20549;-93
2022/09/01 07:53:21;;;;;;;0.10;0.10;;;18.90;99.90;;;;;;4897324;29;20453;-94
2022/09/01 07:55:49;;;;;;;0.10;0.00;;;19.00;99.90;;;;;;4888862;29;20473;-95
2022/09/01 07:58:20;;;;;;;0.10;0.07;;;18.60;99.90;;;;;;4888344;29;20457;-92
2022/09/01 08:00:48;;;;;;;0.10;0.10;;;18.20;99.90;;;;;;4893930;29;20453;-93
2022/09/01 08:03:18;;;;;;;0.10;0.10;;;18.10;99.90;;;;;;4900642;29;20460;-91
2022/09/01 08:05:44;;;;;;;0.10;0.10;;;18.00;99.90;;;;;;4901579;29;20997;-93
2022/09/01 08:08:09;;;;;;;0.10;0.10;;;17.90;99.90;;;;;;4896958;29;20817;-91
2022/09/01 08:10:40;;;;;;;0.10;0.10;;;17.80;99.90;;;;;;4893811;29;20449;-91
2022/09/01 08:13:06;;;;;;;0.10;0.10;;;17.70;99.90;;;;;;4895828;29;20189;-87
2022/09/01 08:15:31;;;;;;;0.10;0.10;;;17.60;99.90;;;;;;4895907;29;20488;-89
2022/09/01 08:17:57;;;;;;;0.10;0.10;;;17.50;99.90;;;;;;4894440;29;20477;-89
2022/09/01 08:20:23;;;;;;;0.10;0.10;;;17.40;99.90;;;;;;4895361;29;20563;-89
2022/09/01 08:22:48;;;;;;;0.10;0.10;;;17.40;99.90;;;;;;4897880;29;20402;-88
2022/09/01 08:25:15;;;;;;;0.10;0.10;;;17.50;99.90;;;;;;4893609;29;20204;-90
2022/09/01 08:27:40;;;;;;;0.10;0.10;;;17.50;99.90;;;;;;4892624;29;20181;-87
2022/09/01 08:30:09;;;;;;;0.10;0.10;;;17.50;99.90;;;;;;4889131;29;20868;-87
2022/09/01 08:32:36;;;;;;;0.10;0.10;;;17.40;99.90;;;;;;4889828;29;20619;-87
2022/09/01 08:35:03;;;;;;;0.10;0.10;;;17.40;99.90;;;;;;4887565;29;20476;-90
2022/09/01 08:37:29;;;;;;;0.10;0.10;;;17.50;99.90;;;;;;4899306;29;21030;-89
2022/09/01 08:39:55;;;;;;;0.10;0.10;;;17.80;99.90;;;;;;4890823;29;20459;-88
2022/09/01 08:42:48;;;;;;;0.10;0.10;;;17.90;99.90;;;;;;4893557;29;20541;-88
2022/09/01 08:45:49;;;;;;;0.10;0.10;;;18.00;99.90;;;;;;4920914;29;20200;-88
2022/09/01 08:48:33;;;;;;;0.10;0.10;;;18.60;99.90;;;;;;4914308;29;20948;-88
2022/09/01 08:51:10;;;;;;;0.10;0.00;;;19.30;99.90;;;;;;4913112;29;20843;-88
2022/09/01 08:53:52;;;;;;;0.10;0.10;;;19.80;99.90;;;;;;4895995;29;20886;-88
2022/09/01 08:56:18;;;;;;;0.10;0.10;;;20.00;99.90;;;;;;4895490;29;20485;-88
2022/09/01 08:58:44;;;;;;;0.10;0.10;;;20.20;99.90;;;;;;4897503;29;21047;-88
2022/09/01 09:01:30;;;;;;;0.10;0.10;;;20.30;99.90;;;;;;4913893;29;20432;-89
2022/09/01 09:04:07;;;;;;;0.10;0.00;;;20.60;99.90;;;;;;4889824;29;20200;-89
2022/09/01 09:06:38;;;;;;;0.10;0.10;;;20.80;99.90;;;;;;4905214;29;20484;-89
2022/09/01 09:09:06;;;;;;;0.00;0.00;;;20.40;99.90;;;;;;4912695;29;20484;-87
2022/09/01 09:11:44;;;;;;;0.10;0.00;;;19.60;99.90;;;;;;4892677;29;20441;-88
2022/09/01 09:14:31;;;;;;;0.10;0.10;;;19.20;99.90;;;;;;4910549;29;20585;-88
2022/09/01 09:16:57;;;;;;;0.10;0.10;;;19.00;99.90;;;;;;4900313;29;20484;-87
2022/09/01 09:19:32;;;;;;;0.10;0.00;;;18.70;99.90;;;;;;4895210;29;20484;-87
2022/09/01 09:22:00;;;;;;;0.10;0.10;;;18.60;99.90;;;;;;4897318;29;20188;-88
2022/09/01 09:24:46;;;;;;;0.10;0.10;;;19.10;99.90;;;;;;4897586;29;20926;-86
2022/09/01 09:27:19;;;;;;;0.10;0.10;;;19.00;99.90;;;;;;4905051;29;20464;-88
2022/09/01 09:29:47;;;;;;;0.10;0.10;;;18.70;99.90;;;;;;4916348;29;21237;-89
2022/09/01 09:32:12;;;;;;;0.10;0.10;;;18.60;99.90;;;;;;4913117;29;20455;-87
2022/09/01 09:34:40;;;;;;;0.10;0.10;;;19.60;99.90;;;;;;4907958;29;20447;-88
2022/09/01 09:37:26;;;;;;;0.10;0.00;;;20.50;99.90;;;;;;4915050;29;20215;-88
2022/09/01 09:40:07;;;;;;;0.10;0.10;;;21.00;99.90;;;;;;4912434;29;20522;-88
2022/09/01 09:42:33;;;;;;;0.10;0.00;;;21.80;99.90;;;;;;4881136;29;20436;-88
2022/09/01 09:44:59;;;;;;;0.10;0.00;;;22.20;99.90;;;;;;4897362;29;20441;-87
2022/09/01 09:47:39;;;;;;;0.10;0.00;;;22.60;99.90;;;;;;4899005;29;20185;-89
2022/09/01 09:50:17;;;;;;;0.10;0.00;;;22.80;99.90;;;;;;4897174;29;20196;-89
2022/09/01 09:52:45;;;;;;;0.10;0.00;;;22.90;99.90;;;;;;4913159;29;20459;-89
2022/09/01 09:55:24;;;;;;;0.10;0.00;;;22.20;99.90;;;;;;4893681;29;20473;-88
2022/09/01 09:57:53;;;;;;;0.10;0.00;;;22.50;99.90;;;;;;4890457;29;20528;-91
2022/09/01 10:00:29;;;;;;;0.10;0.00;;;22.80;99.90;;;;;;4895599;29;20512;-88
2022/09/01 10:03:01;;;;;;;0.10;0.00;;;23.00;99.90;;;;;;4897301;29;20480;-90
2022/09/01 10:05:40;;;;;;;0.10;0.00;;;23.40;99.90;;;;;;4896932;29;20532;-88
2022/09/01 10:08:10;;;;;;;0.10;0.00;;;23.80;99.90;;;;;;4896194;29;20459;-90
2022/09/01 10:10:46;;;;;;;0.10;0.00;;;22.70;99.90;;;;;;4899443;29;20460;-88
2022/09/01 10:13:18;;;;;;;0.10;0.00;;;22.00;99.90;;;;;;4898947;29;21202;-87
2022/09/01 10:15:53;;;;;;;0.10;0.00;;;22.60;99.90;;;;;;4904922;29;20500;-87
2022/09/01 10:18:23;;;;;;;0.10;0.00;;;23.30;99.90;;;;;;4889709;29;20478;-89
2022/09/01 10:21:01;;;;;;;0.10;0.00;;;24.10;99.90;;;;;;4896968;29;20449;-88
2022/09/01 10:23:33;;;;;;;0.10;0.00;;;23.80;99.90;;;;;;4897460;29;20944;-87
2022/09/01 10:26:05;;;;;;;0.10;0.00;;;22.50;99.90;;;;;;4889987;29;21041;-90
2022/09/01 10:28:32;;;;;;;0.10;0.00;;;22.10;99.90;;;;;;4895004;29;20448;-91
2022/09/01 10:30:58;;;;;;;0.10;0.00;;;23.00;99.90;;;;;;4899655;29;20445;-96
2022/09/01 10:33:24;;;;;;;0.10;0.00;;;23.60;99.90;;;;;;4898193;29;20545;-94
2022/09/01 10:35:52;;;;;;;0.10;0.00;;;24.00;99.90;;;;;;4888721;29;22667;-94
2022/09/01 10:38:26;;;;;;;0.10;0.00;;;24.50;99.90;;;;;;4896751;29;20454;-96
2022/09/01 10:41:09;;;;;;;0.10;0.00;;;24.80;99.90;;;;;;4898531;29;20474;-88
2022/09/01 10:43:43;;;;;;;0.10;0.00;;;24.70;99.90;;;;;;4895107;29;20540;-89
2022/09/01 10:46:18;;;;;;;0.10;0.00;;;24.70;99.90;;;;;;4896415;29;20448;-96
2022/09/01 10:48:44;;;;;;;0.10;0.00;;;25.00;99.90;;;;;;4894297;29;20497;-90
2022/09/01 10:51:12;;;;;;;0.10;0.00;;;25.40;99.90;;;;;;4896038;29;20445;-94
2022/09/01 10:53:43;;;;;;;0.10;0.00;;;25.50;99.90;;;;;;4894297;29;20449;-85
2022/09/01 10:56:42;;;;;;;0.10;0.00;;;26.00;99.90;;;;;;4893769;29;20868;-85
2022/09/01 10:59:27;;;;;;;0.10;0.00;;;25.80;99.90;;;;;;4886032;29;20445;-85
2022/09/01 11:01:53;;;;;;;0.10;0.00;;;26.20;99.90;;;;;;4893797;29;20452;-86
2022/09/01 11:04:39;;;;;;;0.10;0.00;;;26.00;99.90;;;;;;4894506;29;20446;-85
2022/09/01 11:07:29;;;;;;;0.10;0.00;;;25.90;99.90;;;;;;4889063;29;20202;-85
2022/09/01 11:10:30;;;;;;;0.10;0.00;;;26.30;99.90;;;;;;4890645;29;20453;-85
2022/09/01 11:13:18;;;;;;;0.10;0.00;;;26.50;99.90;;;;;;4887173;29;20965;-85
2022/09/01 11:15:45;;;;;;;0.10;0.00;;;26.30;99.90;;;;;;4881407;29;21312;-84
2022/09/01 11:18:15;;;;;;;0.10;0.00;;;26.60;99.90;;;;;;4893699;29;20465;-85
2022/09/01 11:20:43;;;;;;;0.10;0.00;;;26.60;99.90;;;;;;4895539;29;21326;-86
2022/09/01 11:23:25;;;;;;;0.10;0.00;;;26.70;99.90;;;;;;4893302;29;20459;-87
2022/09/01 11:25:53;;;;;;;0.10;0.00;;;26.80;99.90;;;;;;4892464;29;20445;-83
2022/09/01 11:28:30;;;;;;;0.10;0.00;;;27.40;99.90;;;;;;4891177;29;20453;-84
2022/09/01 11:31:04;;;;;;;0.10;0.00;;;27.20;99.90;;;;;;4891911;29;21049;-84
2022/09/01 11:33:50;;;;;;;0.10;0.00;;;27.40;99.90;;;;;;4895260;29;20946;-84
2022/09/01 11:36:29;;;;;;;0.10;0.00;;;27.50;99.90;;;;;;4905926;29;20499;-84
2022/09/01 11:39:14;;;;;;;0.10;0.00;;;26.90;99.90;;;;;;4888750;29;20517;-84
2022/09/01 11:41:43;;;;;;;0.10;0.00;;;27.50;99.90;;;;;;4894782;29;20473;-84
2022/09/01 11:44:14;;;;;;;0.10;0.00;;;28.00;99.90;;;;;;4895943;29;20832;-84
2022/09/01 11:46:42;;;;;;;0.10;0.00;;;27.50;99.90;;;;;;4896148;29;20452;-84
2022/09/01 11:49:27;;;;;;;0.10;0.00;;;27.40;99.90;;;;;;4893367;29;20491;-84
2022/09/01 11:51:52;;;;;;;0.10;0.00;;;27.90;99.90;;;;;;4894333;29;20842;-82
2022/09/01 11:54:18;;;;;;;0.10;0.00;;;27.70;99.60;;;;;;4887582;29;20458;-83
2022/09/01 11:56:43;;;;;;;0.10;0.00;;;28.00;99.90;;;;;;4891124;29;20360;-83
2022/09/01 11:59:09;;;;;;;0.10;0.00;;;28.50;99.10;;;;;;4904140;29;20261;-84
2022/09/01 12:01:37;;;;;;;0.10;0.00;;;28.00;98.70;;;;;;4892233;29;20219;-82
2022/09/01 12:04:26;;;;;;;0.10;0.00;;;28.00;99.90;;;;;;4886314;29;20181;-83
2022/09/01 12:06:55;;;;;;;0.10;0.00;;;28.30;99.70;;;;;;4896302;29;20433;-83
2022/09/01 12:09:21;;;;;;;0.10;0.00;;;28.60;98.90;;;;;;4885144;29;20454;-83
2022/09/01 12:11:47;;;;;;;0.10;0.00;;;28.90;99.90;;;;;;4889630;29;20453;-84
2022/09/01 12:14:20;;;;;;;0.10;0.00;;;28.90;98.30;;;;;;4900230;29;20871;-83
2022/09/01 12:16:56;;;;;;;0.10;0.00;;;28.50;98.10;;;;;;4894845;29;20488;-84
2022/09/01 12:19:25;;;;;;;0.10;0.00;;;28.20;98.10;;;;;;4894381;29;20499;-85
2022/09/01 12:22:13;;;;;;;0.10;0.00;;;28.00;97.30;;;;;;4891268;29;20513;-84
2022/09/01 12:24:44;;;;;;;0.10;0.00;;;28.10;97.40;;;;;;4889068;29;20931;-84
2022/09/01 12:27:10;;;;;;;0.10;0.00;;;28.40;97.20;;;;;;4909277;29;20451;-82
2022/09/01 12:29:36;;;;;;;0.10;0.00;;;28.80;97.30;;;;;;4893993;29;20949;-85
2022/09/01 12:32:03;;;;;;;0.10;0.00;;;29.20;97.20;;;;;;4889009;29;20208;-84
2022/09/01 12:34:32;;;;;;;0.10;0.00;;;29.00;96.50;;;;;;4894942;29;20460;-84
2022/09/01 12:37:04;;;;;;;0.10;0.00;;;28.60;96.50;;;;;;4887451;29;20498;-82
2022/09/01 12:39:39;;;;;;;0.10;0.00;;;28.70;96.20;;;;;;4892255;29;20501;-83
2022/09/01 12:42:09;;;;;;;0.10;0.00;;;28.90;95.30;;;;;;4907610;29;20535;-82
2022/09/01 12:44:45;;;;;;;0.10;0.00;;;28.90;95.70;;;;;;4894306;29;20864;-83
2022/09/01 12:47:32;;;;;;;0.10;0.00;;;28.50;96.30;;;;;;4892853;29;20436;-83
2022/09/01 12:50:27;;;;;;;0.10;0.00;;;29.00;96.00;;;;;;4890656;29;20916;-84
2022/09/01 12:52:57;;;;;;;0.10;0.00;;;28.70;96.00;;;;;;4888667;29;20441;-81
2022/09/01 12:55:31;;;;;;;0.10;0.00;;;29.10;95.70;;;;;;4891417;29;20480;-82
2022/09/01 12:57:59;;;;;;;0.10;0.00;;;28.90;94.50;;;;;;4888069;29;20448;-84
2022/09/01 13:00:28;;;;;;;0.10;0.00;;;29.60;94.90;;;;;;4899364;29;20452;-82
2022/09/01 13:02:54;;;;;;;0.10;0.00;;;29.50;94.10;;;;;;4898832;29;20440;-83
2022/09/01 13:05:25;;;;;;;0.10;0.00;;;29.50;92.70;;;;;;4893561;29;20533;-83
2022/09/01 13:07:55;;;;;;;0.10;0.00;;;29.50;92.70;;;;;;4891039;29;20604;-83
2022/09/01 13:10:27;;;;;;;0.10;0.00;;;29.60;92.80;;;;;;4889696;29;20441;-83